Time;durP1;ratioP1;P1;durP2;ratioP2;P2;SDS_P1;SDS_P2;PMS_P1;PMS_P2;Temp;Humidity;BMP_temperature;BMP_pressure;BME280_temperature;BME280_humidity;BME280_pressure;Samples;Min_cycle;Max_cycle;Signal;HPM_P1;HPM_P2
2024/01/20 00:01:25;;;;;;;;;;;;;;;;;;5113916;27;20040;-84
2024/01/20 00:03:52;;;;;;;27.63;14.45;;;;;;;;;;5110018;28;19989;-84
2024/01/20 00:06:18;;;;;;;30.05;14.77;;;;;;;;;;5091808;27;20056;-83
2024/01/20 00:08:44;;;;;;;;;;;;;;;;;;5097823;27;20391;-84
2024/01/20 00:11:10;;;;;;;26.00;14.98;;;;;;;;;;5093231;27;20002;-85
2024/01/20 00:13:36;;;;;;;;;;;;;;;;;;5116308;27;20039;-84
2024/01/20 00:16:02;;;;;;;28.92;15.63;;;;;;;;;;5116747;27;19923;-84
2024/01/20 00:18:28;;;;;;;29.10;14.90;;;;;;;;;;5116471;27;20039;-84
2024/01/20 00:20:54;;;;;;;;;;;;;;;;;;5117292;27;20446;-84
2024/01/20 00:23:20;;;;;;;29.30;15.25;;;;;;;;;;5093244;28;19920;-85
2024/01/20 00:25:46;;;;;;;;;;;;;;;;;;5097101;27;20035;-86
2024/01/20 00:28:12;;;;;;;34.30;16.15;;;;;;;;;;5106102;27;19946;-85
2024/01/20 00:30:38;;;;;;;;;;;;;;;;;;5116674;27;20047;-86
2024/01/20 00:33:08;;;;;;;30.05;15.48;;;;;;;;;;5103253;27;19927;-85
2024/01/20 00:35:34;;;;;;;33.25;16.48;;;;;;;;;;5116548;27;20047;-85
2024/01/20 00:38:00;;;;;;;29.88;16.33;;;;;;;;;;5098843;27;20044;-85
2024/01/20 00:40:27;;;;;;;;;;;;;;;;;;5116746;27;20042;-86
2024/01/20 00:42:53;;;;;;;30.83;15.65;;;;;;;;;;5097523;27;19924;-86
2024/01/20 00:45:19;;;;;;;31.63;16.35;;;;;;;;;;5116077;27;20039;-84
2024/01/20 00:47:45;;;;;;;;;;;;;;;;;;5098621;27;20047;-85
2024/01/20 00:50:11;;;;;;;27.50;14.88;;;;;;;;;;5099877;27;20348;-86
2024/01/20 00:52:37;;;;;;;;;;;;;;;;;;5098275;27;20063;-85
2024/01/20 00:55:03;;;;;;;29.80;16.23;;;;;;;;;;5096225;28;19920;-85
2024/01/20 00:57:29;;;;;;;31.92;17.05;;;;;;;;;;5074609;28;20105;-85
2024/01/20 00:59:56;;;;;;;32.80;17.23;;;;;;;;;;5085376;28;20110;-86
2024/01/20 01:02:22;;;;;;;35.92;16.80;;;;;;;;;;5097320;27;20549;-84
2024/01/20 01:04:48;;;;;;;35.70;16.73;;;;;;;;;;5095495;28;20043;-85
2024/01/20 01:07:14;;;;;;;;;;;;;;;;;;5096111;27;20087;-86
2024/01/20 01:09:40;;;;;;;32.40;16.98;;;;;;;;;;5098834;27;19919;-85
2024/01/20 01:12:06;;;;;;;;;;;;;;;;;;5099228;27;20047;-85
2024/01/20 01:14:32;;;;;;;34.28;17.42;;;;;;;;;;5096939;27;19923;-86
2024/01/20 01:16:59;;;;;;;33.05;16.90;;;;;;;;;;5098310;27;20078;-85
2024/01/20 01:19:25;;;;;;;;;;;;;;;;;;5099280;27;20698;-84
2024/01/20 01:21:51;;;;;;;38.70;17.70;;;;;;;;;;5115596;27;19985;-86
2024/01/20 01:24:17;;;;;;;40.65;17.67;;;;;;;;;;5116263;27;20043;-85
2024/01/20 01:26:43;;;;;;;;;;;;;;;;;;5095530;28;20051;-86
2024/01/20 01:29:09;;;;;;;30.48;17.55;;;;;;;;;;5077983;28;19920;-85
2024/01/20 01:31:35;;;;;;;;;;;;;;;;;;5078218;28;20043;-86
2024/01/20 01:34:01;;;;;;;38.88;18.15;;;;;;;;;;5097290;27;19941;-85
2024/01/20 01:36:27;;;;;;;35.45;17.88;;;;;;;;;;5096533;27;20043;-84
2024/01/20 01:38:53;;;;;;;;;;;;;;;;;;5078630;28;20138;-85
2024/01/20 01:41:19;;;;;;;33.83;18.67;;;;;;;;;;5108462;27;20002;-85
2024/01/20 01:43:45;;;;;;;;;;;;;;;;;;5094365;27;20040;-85
2024/01/20 01:46:11;;;;;;;37.47;18.70;;;;;;;;;;5114582;27;19952;-85
2024/01/20 01:48:37;;;;;;;;;;;;;;;;;;5098815;27;20043;-86
2024/01/20 01:51:04;;;;;;;33.78;18.38;;;;;;;;;;5115726;27;20018;-85
2024/01/20 01:53:31;;;;;;;29.08;17.52;;;;;;;;;;5080973;27;20100;-85
2024/01/20 01:55:59;;;;;;;34.63;17.35;;;;;;;;;;5098613;27;20493;-85
2024/01/20 01:58:26;;;;;;;33.55;18.48;;;;;;;;;;5097413;27;20043;-85
2024/01/20 02:00:52;;;;;;;38.70;19.77;;;;;;;;;;5097694;27;20109;-85
2024/01/20 02:03:18;;;;;;;38.22;19.17;;;;;;;;;;5115517;27;20503;-85
2024/01/20 02:05:44;;;;;;;;;;;;;;;;;;5114093;27;20395;-85
2024/01/20 02:08:10;;;;;;;37.15;18.95;;;;;;;;;;5113844;27;19928;-84
2024/01/20 02:10:38;;;;;;;38.45;20.23;;;;;;;;;;5097158;27;20043;-85
2024/01/20 02:13:05;;;;;;;40.67;20.65;;;;;;;;;;5096842;27;20498;-86
2024/01/20 02:15:32;;;;;;;41.70;20.67;;;;;;;;;;5097600;27;20111;-84
2024/01/20 02:17:58;;;;;;;38.90;20.73;;;;;;;;;;5115041;27;20043;-85
2024/01/20 02:20:24;;;;;;;;;;;;;;;;;;5098586;27;20066;-85
2024/01/20 02:22:51;;;;;;;37.75;20.48;;;;;;;;;;5097341;27;20181;-85
2024/01/20 02:25:17;;;;;;;40.53;21.70;;;;;;;;;;5098328;27;20100;-85
2024/01/20 02:27:43;;;;;;;;;;;;;;;;;;5114060;27;20042;-86
2024/01/20 02:30:09;;;;;;;40.45;22.48;;;;;;;;;;5115054;27;19921;-86
2024/01/20 02:32:35;;;;;;;44.55;22.27;;;;;;;;;;5097315;27;20092;-86
2024/01/20 02:35:01;;;;;;;46.47;22.05;;;;;;;;;;5098411;27;20070;-86
2024/01/20 02:37:27;;;;;;;;;;;;;;;;;;5096213;27;20074;-85
2024/01/20 02:39:53;;;;;;;43.20;22.83;;;;;;;;;;5109057;28;19966;-86
2024/01/20 02:42:19;;;;;;;49.63;22.92;;;;;;;;;;5077305;28;20039;-86
2024/01/20 02:44:45;;;;;;;43.38;22.83;;;;;;;;;;5080176;28;20088;-84
2024/01/20 02:47:11;;;;;;;;;;;;;;;;;;5061083;28;20142;-86
2024/01/20 02:49:37;;;;;;;49.92;23.48;;;;;;;;;;5088567;27;20017;-85
2024/01/20 02:52:03;;;;;;;;;;;;;;;;;;5115339;27;20043;-86
2024/01/20 02:54:29;;;;;;;41.85;21.45;;;;;;;;;;5114263;27;19919;-85
2024/01/20 02:56:55;;;;;;;;;;;;;;;;;;5097736;27;20050;-85
2024/01/20 02:59:21;;;;;;;42.75;22.00;;;;;;;;;;5097025;28;19926;-86
2024/01/20 03:01:47;;;;;;;;;;;;;;;;;;5097033;27;20472;-85
2024/01/20 03:04:14;;;;;;;44.15;23.08;;;;;;;;;;5114906;28;20010;-86
2024/01/20 03:06:40;;;;;;;42.78;22.90;;;;;;;;;;5080278;28;20142;-85
2024/01/20 03:09:07;;;;;;;50.13;22.83;;;;;;;;;;5076156;28;20078;-85
2024/01/20 03:11:35;;;;;;;48.97;24.15;;;;;;;;;;5094202;28;20043;-85
2024/01/20 03:14:01;;;;;;;47.30;22.77;;;;;;;;;;5095795;28;20485;-85
2024/01/20 03:16:27;;;;;;;;;;;;;;;;;;5114404;28;20095;-85
2024/01/20 03:18:53;;;;;;;51.35;24.10;;;;;;;;;;5114108;28;20010;-85
2024/01/20 03:21:19;;;;;;;;;;;;;;;;;;5081416;28;20043;-85
2024/01/20 03:23:45;;;;;;;48.85;23.25;;;;;;;;;;5097609;27;19926;-85
2024/01/20 03:26:11;;;;;;;54.28;22.67;;;;;;;;;;5085120;27;20047;-85
2024/01/20 03:28:37;;;;;;;;;;;;;;;;;;5100943;27;20050;-84
2024/01/20 03:31:03;;;;;;;55.33;25.30;;;;;;;;;;5117957;27;19923;-85
2024/01/20 03:33:29;;;;;;;55.78;22.63;;;;;;;;;;5091354;28;20044;-85
2024/01/20 03:35:55;;;;;;;;;;;;;;;;;;5081261;28;20101;-85
2024/01/20 03:38:21;;;;;;;49.65;23.98;;;;;;;;;;5081013;28;19919;-85
2024/01/20 03:40:47;;;;;;;;;;;;;;;;;;5088923;27;20071;-92
2024/01/20 03:43:13;;;;;;;54.03;24.45;;;;;;;;;;5103062;27;19974;-92
2024/01/20 03:45:39;;;;;;;;;;;;;;;;;;5079670;28;20446;-86
2024/01/20 03:48:05;;;;;;;53.08;23.67;;;;;;;;;;5110695;28;20391;-85
2024/01/20 03:50:31;;;;;;;55.95;24.63;;;;;;;;;;5097396;28;20473;-85
2024/01/20 03:52:57;;;;;;;;;;;;;;;;;;5105805;28;20496;-84
2024/01/20 03:55:23;;;;;;;54.15;23.75;;;;;;;;;;5100073;27;19934;-84
2024/01/20 03:57:49;;;;;;;;;;;;;;;;;;5103591;28;20050;-85
2024/01/20 04:00:15;;;;;;;63.83;24.83;;;;;;;;;;5113924;28;19920;-84
2024/01/20 04:02:41;;;;;;;57.47;25.95;;;;;;;;;;5096371;28;20484;-84
2024/01/20 04:05:07;;;;;;;;;;;;;;;;;;5114678;28;20202;-85
2024/01/20 04:07:33;;;;;;;61.13;24.42;;;;;;;;;;5110551;27;20022;-85
2024/01/20 04:09:59;;;;;;;;;;;;;;;;;;5096815;28;20443;-84
2024/01/20 04:12:25;;;;;;;58.42;23.80;;;;;;;;;;5109712;27;19968;-84
2024/01/20 04:14:51;;;;;;;60.97;24.83;;;;;;;;;;5095292;27;20044;-85
2024/01/20 04:17:18;;;;;;;65.15;26.00;;;;;;;;;;5103824;28;20051;-84
2024/01/20 04:19:44;;;;;;;;;;;;;;;;;;5066455;28;20043;-84
2024/01/20 04:22:10;;;;;;;60.20;24.40;;;;;;;;;;5096523;28;19919;-85
2024/01/20 04:24:36;;;;;;;;;;;;;;;;;;5097165;28;20153;-84
2024/01/20 04:27:02;;;;;;;58.58;23.75;;;;;;;;;;5109932;27;19991;-84
2024/01/20 04:29:28;;;;;;;60.05;24.13;;;;;;;;;;5116248;27;20489;-84
2024/01/20 04:31:54;;;;;;;;;;;;;;;;;;5096186;28;20066;-85
2024/01/20 04:34:20;;;;;;;55.80;22.23;;;;;;;;;;5116016;27;20356;-84
2024/01/20 04:36:46;;;;;;;;;;;;;;;;;;5095603;28;20158;-84
2024/01/20 04:39:12;;;;;;;67.60;24.60;;;;;;;;;;5102176;27;20532;-84
2024/01/20 04:41:37;;;;;;;;;;;;;;;;;;5117109;27;20040;-84
2024/01/20 04:44:04;;;;;;;63.35;25.65;;;;;;;;;;5115334;27;20077;-84
2024/01/20 04:46:30;;;;;;;59.22;23.25;;;;;;;;;;5098295;27;20043;-84
2024/01/20 04:48:56;;;;;;;;;;;;;;;;;;5115008;27;20079;-84
2024/01/20 04:51:22;;;;;;;62.95;23.45;;;;;;;;;;5099723;27;19951;-84
2024/01/20 04:53:48;;;;;;;73.47;27.13;;;;;;;;;;5115403;27;20408;-85
2024/01/20 04:56:14;;;;;;;;;;;;;;;;;;5088390;28;20108;-84
2024/01/20 04:58:40;;;;;;;67.78;25.45;;;;;;;;;;5095103;28;19920;-83
2024/01/20 05:01:06;;;;;;;;;;;;;;;;;;5096067;28;20687;-84
2024/01/20 05:03:32;;;;;;;64.20;23.50;;;;;;;;;;5079606;28;20357;-83
2024/01/20 05:05:58;;;;;;;;;;;;;;;;;;5078712;27;20039;-83
2024/01/20 05:08:24;;;;;;;65.68;22.63;;;;;;;;;;5095368;28;19919;-83
2024/01/20 05:10:50;;;;;;;;;;;;;;;;;;5096160;28;20047;-84
2024/01/20 05:13:16;;;;;;;64.72;25.10;;;;;;;;;;5109512;27;19919;-84
2024/01/20 05:15:42;;;;;;;;;;;;;;;;;;5098994;27;20059;-83
2024/01/20 05:18:08;;;;;;;62.53;24.65;;;;;;;;;;5098743;27;19926;-83
2024/01/20 05:20:34;;;;;;;;;;;;;;;;;;5099732;27;20378;-83
2024/01/20 05:23:00;;;;;;;66.05;25.83;;;;;;;;;;5096095;28;19945;-84
2024/01/20 05:25:26;;;;;;;;;;;;;;;;;;5062913;28;20392;-83
2024/01/20 05:27:52;;;;;;;70.82;25.23;;;;;;;;;;5077690;27;20764;-84
2024/01/20 05:30:18;;;;;;;;;;;;;;;;;;5079481;28;20120;-84
2024/01/20 05:32:44;;;;;;;70.25;24.52;;;;;;;;;;5095490;28;20337;-83
2024/01/20 05:35:10;;;;;;;;;;;;;;;;;;5096066;28;20110;-84
2024/01/20 05:37:36;;;;;;;72.93;24.73;;;;;;;;;;5095553;28;20320;-83
2024/01/20 05:40:02;;;;;;;;;;;;;;;;;;5080808;27;20053;-83
2024/01/20 05:42:28;;;;;;;62.13;23.45;;;;;;;;;;5098705;27;19919;-83
2024/01/20 05:44:54;;;;;;;75.45;23.67;;;;;;;;;;5097827;27;20124;-83
2024/01/20 05:47:20;;;;;;;;;;;;;;;;;;5115835;27;20117;-83
2024/01/20 05:49:46;;;;;;;63.47;24.35;;;;;;;;;;5115934;27;19926;-83
2024/01/20 05:52:12;;;;;;;;;;;;;;;;;;5077730;28;20492;-83
2024/01/20 05:54:38;;;;;;;65.13;22.77;;;;;;;;;;5077897;28;19968;-83
2024/01/20 05:57:04;;;;;;;;;;;;;;;;;;5099422;27;20043;-84
2024/01/20 05:59:30;;;;;;;66.97;22.23;;;;;;;;;;5114654;27;20275;-83
2024/01/20 06:01:56;;;;;;;;;;;;;;;;;;5098187;27;20527;-83
2024/01/20 06:04:23;;;;;;;60.55;23.33;;;;;;;;;;5115402;27;19969;-83
2024/01/20 06:06:49;;;;;;;58.33;20.90;;;;;;;;;;5115404;27;20046;-84
2024/01/20 06:09:16;;;;;;;60.13;22.90;;;;;;;;;;5114818;27;20046;-83
2024/01/20 06:11:42;;;;;;;64.53;24.13;;;;;;;;;;5115179;27;20039;-83
2024/01/20 06:14:08;;;;;;;;;;;;;;;;;;5112437;27;20096;-84
2024/01/20 06:16:38;;;;;;;61.90;22.90;;;;;;;;;;5097646;27;19923;-83
2024/01/20 06:19:04;;;;;;;49.50;18.55;;;;;;;;;;5098303;27;20058;-84
2024/01/20 06:21:30;;;;;;;;;;;;;;;;;;5090108;27;20476;-83
2024/01/20 06:23:56;;;;;;;53.85;19.15;;;;;;;;;;5114322;27;19920;-84
2024/01/20 06:26:22;;;;;;;;;;;;;;;;;;5115049;27;20119;-83
2024/01/20 06:28:48;;;;;;;53.70;21.00;;;;;;;;;;5113767;27;20356;-83
2024/01/20 06:31:14;;;;;;;;;;;;;;;;;;5114719;27;20494;-83
2024/01/20 06:33:41;;;;;;;53.72;19.85;;;;;;;;;;5114902;27;19919;-83
2024/01/20 06:36:07;;;;;;;55.22;20.05;;;;;;;;;;5112222;27;20052;-83
2024/01/20 06:38:33;;;;;;;;;;;;;;;;;;5097211;28;20050;-83
2024/01/20 06:40:59;;;;;;;52.10;18.85;;;;;;;;;;5077379;28;20273;-83
2024/01/20 06:43:25;;;;;;;;;;;;;;;;;;5093741;28;20396;-83
2024/01/20 06:45:51;;;;;;;51.35;20.02;;;;;;;;;;5081733;27;19919;-82
2024/01/20 06:48:17;;;;;;;;;;;;;;;;;;5114909;27;20039;-83
2024/01/20 06:50:43;;;;;;;48.75;18.77;;;;;;;;;;5114933;27;19919;-83
2024/01/20 06:53:10;;;;;;;;;;;;;;;;;;5096076;27;20059;-83
2024/01/20 06:55:36;;;;;;;47.00;19.17;;;;;;;;;;5110859;28;19927;-83
2024/01/20 06:58:03;;;;;;;51.08;18.08;;;;;;;;;;5092438;27;20099;-83
2024/01/20 07:00:29;;;;;;;46.05;19.15;;;;;;;;;;5097250;27;20047;-83
2024/01/20 07:02:55;;;;;;;49.53;18.77;;;;;;;;;;5114604;27;20442;-83
2024/01/20 07:05:21;;;;;;;;;;;;;;;;;;5085992;28;20067;-83
2024/01/20 07:07:47;;;;;;;58.45;20.52;;;;;;;;;;5110157;28;20012;-82
2024/01/20 07:10:14;;;;;;;54.90;19.00;;;;;;;;;;5096231;28;20130;-83
2024/01/20 07:12:40;;;;;;;54.58;20.55;;;;;;;;;;5096395;28;20035;-82
2024/01/20 07:15:06;;;;;;;;;;;;;;;;;;5114486;28;20043;-83
2024/01/20 07:17:32;;;;;;;55.20;19.65;;;;;;;;;;5113844;28;19923;-83
2024/01/20 07:19:58;;;;;;;;;;;;;;;;;;5090713;28;20148;-83
2024/01/20 07:22:25;;;;;;;51.60;18.23;;;;;;;;;;5076523;28;20303;-83
2024/01/20 07:24:51;;;;;;;56.53;20.63;;;;;;;;;;5060397;28;20511;-83
2024/01/20 07:27:17;;;;;;;;;;;;;;;;;;5079718;28;20043;-83
2024/01/20 07:29:44;;;;;;;47.40;18.25;;;;;;;;;;5076122;28;20431;-83
2024/01/20 07:32:11;;;;;;;;;;;;;;;;;;5079787;28;20407;-83
2024/01/20 07:34:37;;;;;;;;;;;;;;;;;;5097933;28;20364;-83
2024/01/20 07:37:03;;;;;;;58.77;20.33;;;;;;;;;;5087750;28;19930;-84
2024/01/20 07:39:29;;;;;;;49.20;18.95;;;;;;;;;;5079423;28;20492;-82
2024/01/20 07:41:56;;;;;;;64.15;21.48;;;;;;;;;;5094036;28;20059;-84
2024/01/20 07:44:21;;;;;;;;;;;;;;;;;;5080686;28;20134;-83
2024/01/20 07:46:48;;;;;;;50.25;16.70;;;;;;;;;;5087328;28;20006;-83
2024/01/20 07:49:14;;;;;;;;;;;;;;;;;;5080074;28;20506;-83
2024/01/20 07:51:40;;;;;;;59.10;19.88;;;;;;;;;;5091018;28;19945;-84
2024/01/20 07:54:06;;;;;;;;;;;;;;;;;;5093773;28;20062;-83
2024/01/20 07:56:32;;;;;;;52.67;18.95;;;;;;;;;;5073005;28;20018;-83
2024/01/20 07:58:58;;;;;;;;;;;;;;;;;;5056082;28;20080;-83
2024/01/20 08:01:24;;;;;;;58.80;20.02;;;;;;;;;;5074006;28;20280;-83
2024/01/20 08:03:50;;;;;;;;;;;;;;;;;;5073581;28;20051;-82
2024/01/20 08:06:16;;;;;;;56.65;20.25;;;;;;;;;;5105163;28;19919;-83
2024/01/20 08:08:44;;;;;;;;;;;;;;;;;;5091990;28;20050;-82
2024/01/20 08:11:10;;;;;;;54.05;20.02;;;;;;;;;;5091422;28;19920;-84
2024/01/20 08:13:36;;;;;;;;;;;;;;;;;;5059637;28;20044;-83
2024/01/20 08:16:02;;;;;;;53.20;19.05;;;;;;;;;;5076472;28;19927;-83
2024/01/20 08:18:28;;;;;;;;;;;;;;;;;;5093889;28;20108;-82
2024/01/20 08:20:54;;;;;;;64.97;21.02;;;;;;;;;;5093908;28;20404;-82
2024/01/20 08:23:20;;;;;;;52.08;19.63;;;;;;;;;;5069524;28;20035;-83
2024/01/20 08:25:46;;;;;;;;;;;;;;;;;;5097630;28;20065;-82
2024/01/20 08:28:12;;;;;;;57.83;20.92;;;;;;;;;;5081775;28;20373;-84
2024/01/20 08:30:38;;;;;;;;;;;;;;;;;;5093489;28;20051;-82
2024/01/20 08:33:04;;;;;;;52.20;18.88;;;;;;;;;;5093651;28;19920;-83
2024/01/20 08:35:30;;;;;;;51.63;19.95;;;;;;;;;;5061256;28;20428;-83
2024/01/20 08:37:56;;;;;;;;;;;;;;;;;;5114156;28;20159;-82
2024/01/20 08:40:22;;;;;;;53.35;19.65;;;;;;;;;;5096441;28;20381;-83
2024/01/20 08:42:48;;;;;;;48.88;18.75;;;;;;;;;;5092460;28;20096;-87
2024/01/20 08:45:14;;;;;;;;;;;;;;;;;;5075909;28;20047;-86
2024/01/20 08:47:41;;;;;;;52.55;17.73;;;;;;;;;;5093559;28;19920;-88
2024/01/20 08:50:07;;;;;;;48.85;17.88;;;;;;;;;;5078117;28;20159;-89
2024/01/20 08:52:33;;;;;;;47.50;18.80;;;;;;;;;;5091737;28;20043;-90
2024/01/20 08:54:59;;;;;;;;;;;;;;;;;;5098133;28;20092;-88
2024/01/20 08:57:29;;;;;;;46.97;17.38;;;;;;;;;;5096475;28;19919;-88
2024/01/20 08:59:55;;;;;;;49.45;17.92;;;;;;;;;;5089594;28;20489;-85
2024/01/20 09:02:21;;;;;;;;;;;;;;;;;;5086297;28;20036;-83
2024/01/20 09:04:47;;;;;;;45.50;16.70;;;;;;;;;;5085624;28;19927;-82
2024/01/20 09:07:13;;;;;;;;;;;;;;;;;;5085917;28;20049;-83
2024/01/20 09:09:39;;;;;;;42.75;16.02;;;;;;;;;;5085149;28;20189;-82
2024/01/20 09:12:06;;;;;;;43.97;16.30;;;;;;;;;;5090086;28;20408;-82
2024/01/20 09:14:32;;;;;;;42.95;16.13;;;;;;;;;;5069048;28;20097;-82
2024/01/20 09:16:58;;;;;;;45.25;17.48;;;;;;;;;;5097037;28;20040;-82
2024/01/20 09:19:24;;;;;;;42.53;17.45;;;;;;;;;;5102259;27;20112;-81
2024/01/20 09:21:51;;;;;;;;;;;;;;;;;;5067914;28;20380;-82
2024/01/20 09:24:17;;;;;;;43.87;15.47;;;;;;;;;;5083884;28;19926;-82
2024/01/20 09:26:43;;;;;;;41.28;15.30;;;;;;;;;;5102337;28;20048;-82
2024/01/20 09:29:09;;;;;;;;;;;;;;;;;;5092300;28;20039;-82
2024/01/20 09:31:35;;;;;;;42.45;16.15;;;;;;;;;;5096325;28;19927;-83
2024/01/20 09:34:01;;;;;;;;;;;;;;;;;;5062038;28;20398;-82
2024/01/20 09:36:27;;;;;;;43.53;15.57;;;;;;;;;;5092374;28;19920;-82
2024/01/20 09:38:53;;;;;;;36.88;15.70;;;;;;;;;;5112577;28;20048;-82
2024/01/20 09:41:20;;;;;;;42.20;16.27;;;;;;;;;;5107547;28;20043;-82
2024/01/20 09:43:46;;;;;;;41.30;16.65;;;;;;;;;;5073201;28;20440;-81
2024/01/20 09:46:12;;;;;;;41.88;16.73;;;;;;;;;;5091928;28;20067;-82
2024/01/20 09:48:38;;;;;;;;;;;;;;;;;;5091853;28;20090;-82
2024/01/20 09:51:04;;;;;;;41.97;14.82;;;;;;;;;;5108027;28;19919;-81
2024/01/20 09:53:31;;;;;;;40.83;15.27;;;;;;;;;;5085887;28;20076;-82
2024/01/20 09:55:56;;;;;;;;;;;;;;;;;;5078976;28;20084;-82
2024/01/20 09:58:23;;;;;;;40.90;15.10;;;;;;;;;;5087848;27;19927;-81
2024/01/20 10:00:51;;;;;;;37.65;14.63;;;;;;;;;;5097827;27;20051;-82
2024/01/20 10:03:20;;;;;;;42.47;16.80;;;;;;;;;;5098442;27;20035;-83
2024/01/20 10:05:46;;;;;;;36.92;14.77;;;;;;;;;;5098677;27;20139;-82
2024/01/20 10:08:12;;;;;;;37.72;15.63;;;;;;;;;;5115324;27;20517;-82
2024/01/20 10:10:39;;;;;;;35.55;15.52;;;;;;;;;;5098003;27;20057;-81
2024/01/20 10:13:05;;;;;;;41.88;16.23;;;;;;;;;;5080680;27;20075;-82
2024/01/20 10:15:32;;;;;;;;;;;;;;;;;;5098090;27;20494;-82
2024/01/20 10:17:59;;;;;;;;;;;;;;;;;;5098921;27;19919;-82
2024/01/20 10:20:26;;;;;;;42.53;14.70;;;;;;;;;;5109701;27;20534;-84
2024/01/20 10:22:52;;;;;;;35.38;15.02;;;;;;;;;;5094108;28;20533;-82
2024/01/20 10:25:19;;;;;;;33.22;14.18;;;;;;;;;;5077706;28;20485;-82
2024/01/20 10:27:46;;;;;;;38.35;15.02;;;;;;;;;;5106388;27;20504;-82
2024/01/20 10:30:12;;;;;;;36.15;13.90;;;;;;;;;;5081128;27;20101;-81
2024/01/20 10:32:42;;;;;;;35.45;13.32;;;;;;;;;;5095218;27;20078;-83
2024/01/20 10:35:08;;;;;;;31.13;13.32;;;;;;;;;;5084944;27;20104;-83
2024/01/20 10:37:37;;;;;;;32.13;14.48;;;;;;;;;;5077139;28;20147;-83
2024/01/20 10:40:03;;;;;;;33.92;13.85;;;;;;;;;;5093018;28;20547;-83
2024/01/20 10:42:32;;;;;;;;;;;;;;;;;;5079448;27;20070;-84
2024/01/20 10:44:58;;;;;;;33.75;13.13;;;;;;;;;;5097109;27;19919;-83
2024/01/20 10:47:36;;;;;;;40.92;14.20;;;;;;;;;;5102844;27;20058;-83
2024/01/20 10:50:06;;;;;;;32.97;13.27;;;;;;;;;;5104258;27;20137;-83
2024/01/20 10:52:34;;;;;;;32.03;12.00;;;;;;;;;;5100135;27;20047;-83
2024/01/20 10:55:01;;;;;;;27.83;11.82;;;;;;;;;;5105683;27;20047;-83
2024/01/20 10:57:28;;;;;;;31.25;13.25;;;;;;;;;;5117393;27;20035;-84
2024/01/20 10:59:54;;;;;;;28.05;12.07;;;;;;;;;;5133447;27;20061;-84
2024/01/20 11:02:22;;;;;;;30.80;12.13;;;;;;;;;;5134395;27;20118;-84
2024/01/20 11:04:48;;;;;;;31.73;13.32;;;;;;;;;;5109855;27;20043;-84
2024/01/20 11:07:14;;;;;;;34.47;12.77;;;;;;;;;;5125565;27;20050;-84
2024/01/20 11:09:40;;;;;;;;;;;;;;;;;;5110186;27;20034;-84
2024/01/20 11:12:09;;;;;;;28.80;11.82;;;;;;;;;;5114908;27;20002;-84
2024/01/20 11:14:36;;;;;;;33.08;13.38;;;;;;;;;;5102869;27;20035;-83
2024/01/20 11:17:14;;;;;;;34.50;11.85;;;;;;;;;;5114891;27;20047;-84
2024/01/20 11:19:40;;;;;;;32.25;13.48;;;;;;;;;;5129644;27;20386;-83
2024/01/20 11:22:26;;;;;;;31.33;12.00;;;;;;;;;;5114948;27;20534;-83
2024/01/20 11:24:53;;;;;;;31.80;12.90;;;;;;;;;;5108004;27;20491;-83
2024/01/20 11:27:19;;;;;;;33.05;12.93;;;;;;;;;;5114693;27;20048;-83
2024/01/20 11:29:45;;;;;;;;;;;;;;;;;;5099027;27;20133;-84
2024/01/20 11:32:11;;;;;;;31.98;12.50;;;;;;;;;;5115903;27;20006;-84
2024/01/20 11:34:37;;;;;;;;;;;;;;;;;;5105718;27;20467;-84
2024/01/20 11:37:03;;;;;;;30.25;11.65;;;;;;;;;;5119765;27;19973;-84
2024/01/20 11:39:29;;;;;;;36.30;13.90;;;;;;;;;;5106349;27;20118;-83
2024/01/20 11:42:00;;;;;;;30.90;12.98;;;;;;;;;;5121556;27;20032;-83
2024/01/20 11:44:27;;;;;;;31.65;13.75;;;;;;;;;;5103974;27;20043;-84
2024/01/20 11:46:54;;;;;;;34.53;12.93;;;;;;;;;;5094601;27;20146;-83
2024/01/20 11:49:20;;;;;;;34.95;12.38;;;;;;;;;;5083226;27;20046;-84
2024/01/20 11:51:46;;;;;;;;;;;;;;;;;;5104387;27;20400;-84
2024/01/20 11:54:12;;;;;;;34.30;13.15;;;;;;;;;;5106019;27;19919;-84
2024/01/20 11:56:38;;;;;;;29.10;12.55;;;;;;;;;;5090720;27;20051;-84
2024/01/20 11:59:05;;;;;;;30.95;13.35;;;;;;;;;;5072965;27;20082;-84
2024/01/20 12:01:31;;;;;;;33.22;12.77;;;;;;;;;;5082095;27;20477;-83
2024/01/20 12:03:59;;;;;;;;;;;;;;;;;;5089136;27;20035;-84
2024/01/20 12:06:25;;;;;;;31.90;13.20;;;;;;;;;;5090400;27;20371;-84
2024/01/20 12:08:51;;;;;;;34.08;12.65;;;;;;;;;;5105760;27;20152;-84
2024/01/20 12:11:20;;;;;;;30.40;12.52;;;;;;;;;;5086507;27;20653;-84
2024/01/20 12:13:47;;;;;;;35.53;14.25;;;;;;;;;;5100394;27;20047;-84
2024/01/20 12:16:13;;;;;;;30.88;12.20;;;;;;;;;;5117036;27;20043;-83
2024/01/20 12:18:39;;;;;;;;;;;;;;;;;;5100277;27;20040;-83
2024/01/20 12:21:06;;;;;;;31.13;12.40;;;;;;;;;;5090271;27;19978;-84
2024/01/20 12:23:32;;;;;;;29.35;12.82;;;;;;;;;;5107134;27;20089;-83
2024/01/20 12:25:59;;;;;;;;;;;;;;;;;;5091101;27;20031;-83
2024/01/20 12:28:25;;;;;;;;;;;;;;;;;;5105768;27;19919;-83
2024/01/20 12:30:51;;;;;;;28.15;12.05;;;;;;;;;;5088458;27;19926;-85
2024/01/20 12:33:18;;;;;;;24.40;10.95;;;;;;;;;;5107976;27;20122;-85
2024/01/20 12:35:44;;;;;;;33.05;12.40;;;;;;;;;;5106035;27;20485;-84
2024/01/20 12:38:10;;;;;;;27.00;12.60;;;;;;;;;;5080528;27;20108;-85
2024/01/20 12:40:36;;;;;;;;;;;;;;;;;;5102558;27;20568;-84
2024/01/20 12:43:03;;;;;;;31.02;12.65;;;;;;;;;;5126747;27;19923;-84
2024/01/20 12:45:29;;;;;;;30.55;11.63;;;;;;;;;;5128500;27;20039;-84
2024/01/20 12:47:55;;;;;;;35.97;13.55;;;;;;;;;;5131999;27;20042;-84
2024/01/20 12:50:21;;;;;;;;;;;;;;;;;;5103765;27;20042;-84
2024/01/20 12:52:47;;;;;;;31.33;11.45;;;;;;;;;;5136097;27;19926;-84
2024/01/20 12:55:13;;;;;;;;;;;;;;;;;;5120263;27;20629;-84
2024/01/20 12:57:39;;;;;;;28.27;11.63;;;;;;;;;;5118279;27;19919;-84
2024/01/20 13:00:06;;;;;;;;;;;;;;;;;;5126711;27;20074;-84
2024/01/20 13:02:32;;;;;;;32.13;13.52;;;;;;;;;;5115769;27;20394;-84
2024/01/20 13:04:58;;;;;;;;;;;;;;;;;;5119610;27;20483;-84
2024/01/20 13:07:24;;;;;;;30.55;12.35;;;;;;;;;;5119855;27;19925;-84
2024/01/20 13:09:50;;;;;;;;;;;;;;;;;;5136518;27;20039;-84
2024/01/20 13:12:16;;;;;;;31.92;12.32;;;;;;;;;;5136410;27;19925;-84
2024/01/20 13:14:42;;;;;;;28.13;12.82;;;;;;;;;;5100811;27;20046;-84
2024/01/20 13:17:08;;;;;;;;;;;;;;;;;;5120143;27;20125;-88
2024/01/20 13:19:35;;;;;;;30.17;12.90;;;;;;;;;;5112780;27;19926;-83
2024/01/20 13:22:01;;;;;;;28.25;11.23;;;;;;;;;;5083153;28;20065;-83
2024/01/20 13:24:27;;;;;;;30.02;13.20;;;;;;;;;;5072077;28;20047;-85
2024/01/20 13:26:53;;;;;;;28.17;11.93;;;;;;;;;;5094596;28;20052;-84
2024/01/20 13:29:19;;;;;;;34.40;12.18;;;;;;;;;;5094355;28;20093;-84
2024/01/20 13:31:45;;;;;;;28.63;12.55;;;;;;;;;;5077913;28;20134;-83
2024/01/20 13:34:11;;;;;;;;;;;;;;;;;;5085621;28;20523;-84
2024/01/20 13:36:37;;;;;;;27.15;11.98;;;;;;;;;;5078775;28;19923;-84
2024/01/20 13:39:04;;;;;;;;;;;;;;;;;;5095187;28;20059;-84
2024/01/20 13:41:32;;;;;;;28.63;11.63;;;;;;;;;;5078737;28;20012;-84
2024/01/20 13:43:58;;;;;;;29.80;12.32;;;;;;;;;;5093834;28;20051;-84
2024/01/20 13:46:24;;;;;;;27.10;12.77;;;;;;;;;;5104531;28;20039;-81
2024/01/20 13:48:50;;;;;;;24.75;11.77;;;;;;;;;;5078206;28;20051;-82
2024/01/20 13:51:17;;;;;;;26.63;11.90;;;;;;;;;;5095679;28;20047;-82
2024/01/20 13:53:43;;;;;;;26.23;11.95;;;;;;;;;;5080323;28;20051;-82
2024/01/20 13:56:11;;;;;;;26.80;12.05;;;;;;;;;;5078065;28;20044;-82
2024/01/20 13:58:37;;;;;;;22.52;11.98;;;;;;;;;;5093869;28;20108;-82
2024/01/20 14:01:04;;;;;;;;;;;;;;;;;;5077715;28;20058;-82
2024/01/20 14:03:31;;;;;;;26.67;12.95;;;;;;;;;;5095199;28;19919;-82
2024/01/20 14:05:57;;;;;;;26.23;11.82;;;;;;;;;;5094884;28;20051;-82
2024/01/20 14:08:23;;;;;;;;;;;;;;;;;;5094196;28;20134;-81
2024/01/20 14:10:50;;;;;;;22.10;11.32;;;;;;;;;;5083681;28;19920;-81
2024/01/20 14:13:16;;;;;;;23.30;11.63;;;;;;;;;;5094166;28;20066;-81
2024/01/20 14:15:42;;;;;;;;;;;;;;;;;;5078110;28;20059;-82
2024/01/20 14:18:09;;;;;;;25.48;13.20;;;;;;;;;;5093757;28;19926;-82
2024/01/20 14:20:35;;;;;;;22.92;11.93;;;;;;;;;;5095007;28;20048;-81
2024/01/20 14:23:01;;;;;;;23.67;11.80;;;;;;;;;;5093997;28;20054;-81
2024/01/20 14:25:27;;;;;;;22.77;12.45;;;;;;;;;;5077914;28;20040;-81
2024/01/20 14:27:53;;;;;;;22.75;11.88;;;;;;;;;;5087399;28;20051;-82
2024/01/20 14:30:19;;;;;;;;;;;;;;;;;;5097410;27;20046;-79
2024/01/20 14:32:45;;;;;;;25.70;12.70;;;;;;;;;;5110420;27;19923;-82
2024/01/20 14:35:11;;;;;;;24.83;12.88;;;;;;;;;;5075533;27;20543;-82
2024/01/20 14:37:37;;;;;;;;;;;;;;;;;;5072603;27;20507;-81
2024/01/20 14:40:04;;;;;;;25.40;12.32;;;;;;;;;;5087858;28;19928;-82
2024/01/20 14:42:31;;;;;;;27.05;13.30;;;;;;;;;;5101483;27;20102;-80
2024/01/20 14:44:56;;;;;;;;;;;;;;;;;;5083697;27;20035;-80
2024/01/20 14:47:23;;;;;;;27.27;12.90;;;;;;;;;;5103472;28;19923;-80
2024/01/20 14:49:49;;;;;;;27.25;13.23;;;;;;;;;;5111582;27;20046;-81
2024/01/20 14:52:15;;;;;;;;;;;;;;;;;;5112926;27;20035;-80